Time;durP1;ratioP1;P1;durP2;ratioP2;P2;SDS_P1;SDS_P2;PMS_P1;PMS_P2;Temp;Humidity;BMP_temperature;BMP_pressure;BME280_temperature;BME280_humidity;BME280_pressure;Samples;Min_cycle;Max_cycle;Signal;HPM_P1;HPM_P2
2021/06/28 01:53:00;;;;;;;10.65;6.07;;;13.50;99.90;;;;;;5202273;23;19985;-96
2021/06/28 02:20:07;;;;;;;9.43;5.35;;;13.40;99.90;;;;;;5936226;23;20054;-93
2021/06/28 02:42:39;;;;;;;14.60;8.52;;;13.30;99.90;;;;;;5838156;23;20050;-95
2021/06/28 02:45:09;;;;;;;13.73;8.38;;;13.30;99.90;;;;;;5018364;28;20057;-95
2021/06/28 02:47:41;;;;;;;14.80;9.23;;;13.30;99.90;;;;;;5017827;28;20034;-94
2021/06/28 02:50:11;;;;;;;13.35;8.38;;;13.30;99.90;;;;;;5002428;28;20025;-95
2021/06/28 02:55:28;;;;;;;24.75;9.60;;;13.30;99.90;;;;;;5441605;23;20049;-95
2021/06/28 02:57:58;;;;;;;16.08;9.10;;;13.30;99.90;;;;;;4986776;28;20067;-95
2021/06/28 03:00:24;;;;;;;16.63;8.80;;;13.20;99.90;;;;;;5019354;28;20031;-96
2021/06/28 03:02:59;;;;;;;12.65;7.65;;;13.20;99.90;;;;;;5019701;28;20015;-94
2021/06/28 03:05:26;;;;;;;15.48;8.68;;;13.20;99.90;;;;;;5011927;28;20035;-96
2021/06/28 03:07:53;;;;;;;14.02;7.43;;;13.20;99.90;;;;;;5012923;28;20050;-94
2021/06/28 03:56:47;;;;;;;15.02;9.05;;;12.90;99.90;;;;;;5797345;23;20992;-92
2021/06/28 06:03:55;;;;;;;13.82;7.90;;;12.60;99.90;;;;;;5833961;23;20548;-95
2021/06/28 06:06:22;;;;;;;12.75;9.10;;;12.60;99.90;;;;;;4990926;28;20038;-94
2021/06/28 06:08:50;;;;;;;12.77;8.90;;;12.70;99.90;;;;;;5009388;28;20030;-95
2021/06/28 06:11:24;;;;;;;16.50;9.75;;;12.60;99.90;;;;;;4988566;28;20129;-94
2021/06/28 06:13:50;;;;;;;16.88;9.55;;;12.60;99.90;;;;;;4975984;28;20114;-96
2021/06/28 06:16:15;;;;;;;15.52;9.88;;;12.60;99.90;;;;;;4971567;28;20050;-94
2021/06/28 06:18:47;;;;;;;16.35;9.98;;;12.60;99.90;;;;;;4971745;28;20027;-96
2021/06/28 06:21:16;;;;;;;17.23;9.48;;;12.60;99.90;;;;;;4989355;28;20026;-94
2021/06/28 06:23:54;;;;;;;13.00;8.63;;;12.60;99.90;;;;;;4967502;28;20027;-95
2021/06/28 06:26:21;;;;;;;15.07;8.82;;;12.70;99.90;;;;;;4995256;28;20034;-94
2021/06/28 06:28:48;;;;;;;14.75;8.27;;;12.70;99.90;;;;;;5004685;28;20031;-95
2021/06/28 06:31:18;;;;;;;12.30;8.05;;;12.70;99.90;;;;;;4993497;28;20069;-96
2021/06/28 06:33:44;;;;;;;12.25;7.55;;;12.70;99.90;;;;;;4976917;28;20019;-95
2021/06/28 06:36:10;;;;;;;11.13;7.13;;;12.70;99.90;;;;;;4973569;28;20042;-96
2021/06/28 06:38:46;;;;;;;9.88;7.40;;;12.70;99.90;;;;;;4991192;28;20161;-94
2021/06/28 06:41:12;;;;;;;12.77;7.65;;;12.70;99.90;;;;;;4993062;28;20045;-95
2021/06/28 06:43:38;;;;;;;9.77;6.88;;;12.80;99.90;;;;;;4981672;28;20073;-95
2021/06/28 06:46:04;;;;;;;13.52;7.10;;;12.80;99.90;;;;;;4983126;28;20030;-94
2021/06/28 06:48:30;;;;;;;10.60;7.40;;;12.80;99.90;;;;;;4955926;28;20025;-95
2021/06/28 06:50:56;;;;;;;8.90;5.53;;;12.80;99.90;;;;;;4960397;28;20145;-93
2021/06/28 06:53:31;;;;;;;7.47;5.80;;;12.80;99.90;;;;;;4981856;28;20035;-95
2021/06/28 06:56:05;;;;;;;9.20;5.20;;;12.80;99.90;;;;;;4992422;28;20035;-95
2021/06/28 06:58:34;;;;;;;8.55;5.10;;;12.80;99.90;;;;;;4993008;28;20066;-95
2021/06/28 07:01:10;;;;;;;8.63;5.25;;;12.80;99.90;;;;;;4993565;28;20027;-96
2021/06/28 07:03:40;;;;;;;7.95;5.63;;;12.80;99.90;;;;;;4996897;28;20050;-95
2021/06/28 07:06:14;;;;;;;11.77;6.10;;;12.80;99.90;;;;;;4988978;28;20077;-94
2021/06/28 07:08:44;;;;;;;12.60;7.00;;;12.80;99.90;;;;;;5375959;23;20061;-92
2021/06/28 07:13:50;;;;;;;10.27;5.68;;;12.80;99.90;;;;;;5269426;23;20062;-96
2021/06/28 07:16:19;;;;;;;;;;;12.80;99.90;;;;;;4978763;28;20038;-94
2021/06/28 07:18:46;;;;;;;12.95;7.15;;;12.80;99.90;;;;;;4961275;28;20395;-94
2021/06/28 07:21:12;;;;;;;11.95;7.65;;;12.90;99.90;;;;;;4977284;28;20027;-94
2021/06/28 07:23:41;;;;;;;11.23;7.50;;;12.90;99.90;;;;;;4968152;28;20031;-94
2021/06/28 07:26:07;;;;;;;11.77;8.10;;;13.00;99.90;;;;;;4987493;28;20030;-93
2021/06/28 07:28:33;;;;;;;13.32;7.82;;;13.10;99.90;;;;;;4984624;28;20019;-94
2021/06/28 07:31:02;;;;;;;18.23;10.63;;;13.20;99.90;;;;;;4970340;28;20137;-94
2021/06/28 07:33:38;;;;;;;15.70;10.80;;;13.20;99.90;;;;;;4992574;28;20033;-95
2021/06/28 07:36:06;;;;;;;18.92;12.10;;;13.30;99.90;;;;;;4970548;28;20154;-93
2021/06/28 07:38:33;;;;;;;19.20;10.65;;;13.30;99.90;;;;;;4975189;28;20018;-94
2021/06/28 07:41:03;;;;;;;14.60;9.70;;;13.30;99.90;;;;;;4941976;28;20062;-95
2021/06/28 07:43:28;;;;;;;14.55;9.90;;;13.50;99.90;;;;;;4957921;28;20069;-92
2021/06/28 07:45:59;;;;;;;16.35;10.57;;;13.60;99.90;;;;;;4975727;28;20030;-94
2021/06/28 07:48:28;;;;;;;17.45;11.02;;;13.60;99.90;;;;;;4960946;28;20069;-93
2021/06/28 07:50:57;;;;;;;14.38;9.60;;;13.70;99.90;;;;;;4974030;28;20476;-95
2021/06/28 07:53:25;;;;;;;13.57;8.67;;;13.80;99.90;;;;;;4961384;28;20091;-94
2021/06/28 07:55:53;;;;;;;13.75;8.98;;;13.80;99.90;;;;;;4975160;28;20081;-94
2021/06/28 07:58:19;;;;;;;14.13;9.50;;;13.90;99.90;;;;;;4959435;28;20171;-94
2021/06/28 08:00:44;;;;;;;18.90;9.90;;;13.90;99.90;;;;;;4958786;28;20062;-94
2021/06/28 08:03:18;;;;;;;14.95;9.07;;;13.90;99.90;;;;;;4975463;28;20023;-94
2021/06/28 08:05:43;;;;;;;12.60;8.40;;;14.00;99.90;;;;;;4977434;28;20106;-94
2021/06/28 08:08:09;;;;;;;11.77;7.82;;;14.10;99.90;;;;;;4961700;28;20109;-94
2021/06/28 08:10:35;;;;;;;10.38;7.10;;;14.20;99.90;;;;;;4957497;29;20401;-96
2021/06/28 08:13:01;;;;;;;10.50;7.05;;;14.30;99.90;;;;;;4957657;29;20034;-95
2021/06/28 08:15:27;;;;;;;9.50;6.43;;;14.40;99.90;;;;;;4976533;28;20059;-95
2021/06/28 08:17:53;;;;;;;8.30;6.00;;;14.60;99.90;;;;;;4967179;28;20031;-94
2021/06/28 08:20:22;;;;;;;7.38;6.13;;;14.70;99.90;;;;;;4956844;29;20062;-93
2021/06/28 08:22:49;;;;;;;6.95;5.60;;;14.80;99.90;;;;;;4956425;29;20020;-95
2021/06/28 08:25:19;;;;;;;8.45;5.47;;;14.90;99.90;;;;;;4970894;29;20055;-93
2021/06/28 08:27:45;;;;;;;5.32;4.70;;;15.00;99.90;;;;;;4960056;28;20019;-95
2021/06/28 08:30:11;;;;;;;6.25;3.55;;;15.20;99.90;;;;;;4978231;28;20043;-95
2021/06/28 08:32:38;;;;;;;4.18;3.22;;;15.20;99.90;;;;;;4978681;28;20082;-94
2021/06/28 08:35:05;;;;;;;2.95;2.65;;;15.30;99.90;;;;;;4962288;29;20011;-93
2021/06/28 08:37:31;;;;;;;5.53;2.67;;;15.40;99.90;;;;;;4944779;28;20036;-95
2021/06/28 08:39:58;;;;;;;3.30;2.75;;;15.40;99.90;;;;;;4966204;28;20019;-96
2021/06/28 08:42:24;;;;;;;5.65;2.83;;;15.40;99.90;;;;;;4972694;28;20028;-94
2021/06/28 08:47:28;;;;;;;3.67;2.65;;;15.50;99.90;;;;;;4995221;28;20043;-96
2021/06/28 08:49:57;;;;;;;2.42;2.20;;;15.60;99.90;;;;;;4994007;28;20027;-96
2021/06/28 08:52:24;;;;;;;3.58;2.72;;;15.70;99.90;;;;;;4995103;28;20037;-95
2021/06/28 08:54:51;;;;;;;4.18;3.58;;;15.70;99.90;;;;;;4978312;28;20094;-94
2021/06/28 08:57:18;;;;;;;4.85;4.22;;;15.80;99.90;;;;;;4978635;28;20027;-94
2021/06/28 08:59:52;;;;;;;5.40;4.68;;;15.90;99.90;;;;;;4997831;28;20011;-95
2021/06/28 09:02:18;;;;;;;4.43;4.00;;;15.90;99.90;;;;;;4969826;29;20051;-95
2021/06/28 09:05:05;;;;;;;5.53;3.92;;;16.00;99.90;;;;;;4987477;28;20082;-94
2021/06/28 09:07:36;;;;;;;4.32;3.85;;;16.10;99.90;;;;;;4968120;28;20061;-95
2021/06/28 09:10:05;;;;;;;4.22;3.20;;;16.20;99.90;;;;;;4963249;29;20051;-96
2021/06/28 09:12:31;;;;;;;4.82;3.75;;;16.30;99.90;;;;;;4960710;29;20047;-96
2021/06/28 09:14:59;;;;;;;5.95;3.50;;;16.50;99.90;;;;;;4958687;29;20382;-96
2021/06/28 09:17:26;;;;;;;4.28;3.45;;;16.60;99.90;;;;;;4939621;29;20131;-96
2021/06/28 09:20:20;;;;;;;4.15;3.50;;;16.70;99.90;;;;;;4959160;29;20068;-95
2021/06/28 09:22:48;;;;;;;5.72;3.10;;;16.70;99.90;;;;;;4981509;28;20026;-96
2021/06/28 09:25:32;;;;;;;5.15;3.60;;;16.80;99.90;;;;;;4974239;29;20098;-94
2021/06/28 09:27:59;;;;;;;6.07;3.72;;;16.80;99.90;;;;;;4973222;29;20055;-93
2021/06/28 09:30:26;;;;;;;6.43;3.78;;;16.80;99.90;;;;;;4942833;29;20039;-95
2021/06/28 09:33:03;;;;;;;5.70;3.25;;;16.70;99.90;;;;;;4956798;29;20023;-95
2021/06/28 09:35:30;;;;;;;5.47;3.28;;;16.60;99.90;;;;;;4972740;29;20039;-95
2021/06/28 09:38:21;;;;;;;4.72;3.30;;;16.70;99.90;;;;;;4953878;29;20027;-95
2021/06/28 09:40:47;;;;;;;5.65;2.97;;;16.80;99.90;;;;;;4961065;29;20031;-96
2021/06/28 09:43:26;;;;;;;3.80;3.25;;;16.80;99.90;;;;;;4970999;28;20050;-94
2021/06/28 09:45:56;;;;;;;6.40;2.78;;;16.80;99.90;;;;;;4953457;29;20111;-95
2021/06/28 09:48:31;;;;;;;3.73;3.00;;;16.90;99.90;;;;;;4956368;29;20023;-93
2021/06/28 09:51:25;;;;;;;5.10;2.95;;;17.00;99.90;;;;;;4957372;29;20374;-95
2021/06/28 09:54:18;;;;;;;4.05;2.85;;;17.00;99.90;;;;;;4956010;29;20037;-95
2021/06/28 09:57:12;;;;;;;4.55;2.88;;;17.00;99.90;;;;;;4958941;29;20034;-95
2021/06/28 10:00:07;;;;;;;3.65;3.20;;;17.10;99.90;;;;;;4972993;28;20043;-95
2021/06/28 10:02:48;;;;;;;5.60;2.80;;;17.20;99.90;;;;;;4979264;28;20095;-95
2021/06/28 10:05:18;;;;;;;3.47;3.00;;;17.30;99.90;;;;;;4960281;28;20024;-95
2021/06/28 10:07:46;;;;;;;4.25;3.55;;;17.30;99.90;;;;;;4972660;28;20124;-96
2021/06/28 10:10:22;;;;;;;4.45;3.50;;;17.30;99.90;;;;;;4954914;28;20022;-96
2021/06/28 10:13:19;;;;;;;6.47;4.63;;;17.30;99.90;;;;;;4978121;28;20024;-95
2021/06/28 10:15:54;;;;;;;4.70;4.00;;;17.30;99.90;;;;;;4979791;28;20042;-96
2021/06/28 10:18:25;;;;;;;5.72;4.15;;;17.30;99.90;;;;;;4977222;28;20051;-95
2021/06/28 10:20:51;;;;;;;;;;;17.20;99.90;;;;;;4960824;28;20031;-94
2021/06/28 10:23:19;;;;;;;3.92;3.55;;;17.10;99.90;;;;;;4971470;28;19914;-94
2021/06/28 10:25:44;;;;;;;4.68;3.63;;;17.10;99.90;;;;;;4954062;28;20041;-93
2021/06/28 10:28:10;;;;;;;7.82;4.28;;;17.10;99.90;;;;;;4970218;28;20046;-94
2021/06/28 10:30:41;;;;;;;3.88;3.22;;;17.00;99.90;;;;;;4949964;28;20035;-96
2021/06/28 10:33:12;;;;;;;6.75;4.30;;;17.00;99.90;;;;;;4972269;28;20031;-93
2021/06/28 10:35:41;;;;;;;;;;;17.00;99.90;;;;;;4953981;28;20047;-95
2021/06/28 10:38:13;;;;;;;5.10;3.85;;;17.00;99.90;;;;;;4965814;28;19909;-96
2021/06/28 10:41:01;;;;;;;4.13;3.70;;;17.00;99.90;;;;;;4964510;28;20073;-95
2021/06/28 10:43:34;;;;;;;4.75;3.72;;;17.10;99.90;;;;;;4958253;28;20031;-96
2021/06/28 10:46:02;;;;;;;4.50;3.50;;;17.10;99.90;;;;;;4960314;28;20043;-95
2021/06/28 10:48:44;;;;;;;3.75;3.25;;;17.10;99.90;;;;;;4953660;28;20027;-96
2021/06/28 10:51:10;;;;;;;6.72;3.13;;;17.10;99.90;;;;;;4936882;28;20035;-93
2021/06/28 10:53:40;;;;;;;5.05;2.95;;;17.00;99.90;;;;;;4969577;28;20135;-95
2021/06/28 10:56:32;;;;;;;6.63;3.10;;;17.10;99.90;;;;;;4951531;28;20023;-95
2021/06/28 10:58:59;;;;;;;5.15;3.17;;;17.10;99.90;;;;;;4972066;28;20015;-94
2021/06/28 11:01:46;;;;;;;5.97;3.00;;;17.10;99.90;;;;;;4949538;28;20495;-95
2021/06/28 11:04:12;;;;;;;3.45;2.63;;;17.00;99.90;;;;;;4956919;28;20023;-95
2021/06/28 11:07:00;;;;;;;5.20;2.90;;;17.00;99.90;;;;;;4970390;28;20091;-94
2021/06/28 11:09:56;;;;;;;5.32;2.35;;;17.10;99.90;;;;;;4971191;28;20027;-96
2021/06/28 11:12:38;;;;;;;4.45;2.55;;;17.10;99.90;;;;;;4979343;28;20058;-95
2021/06/28 11:15:23;;;;;;;3.00;1.92;;;17.20;99.90;;;;;;4975880;28;20039;-95
2021/06/28 11:18:01;;;;;;;5.07;2.72;;;17.30;99.90;;;;;;4973981;28;20087;-94
2021/06/28 11:20:52;;;;;;;3.55;2.50;;;17.30;99.90;;;;;;4959793;28;20031;-96
2021/06/28 11:23:18;;;;;;;6.90;2.70;;;17.30;99.90;;;;;;4969884;28;20023;-95
2021/06/28 11:25:57;;;;;;;2.20;2.00;;;17.30;99.90;;;;;;4951808;28;20035;-95
2021/06/28 11:28:37;;;;;;;3.10;2.50;;;17.20;99.90;;;;;;4947929;28;20511;-94
2021/06/28 11:31:10;;;;;;;4.28;2.03;;;17.20;99.90;;;;;;4965872;28;20094;-94
2021/06/28 11:33:48;;;;;;;6.22;2.42;;;17.20;99.90;;;;;;4965363;28;20030;-93
2021/06/28 11:36:40;;;;;;;3.45;2.85;;;17.20;99.90;;;;;;4947031;28;20027;-93
2021/06/28 11:39:29;;;;;;;2.75;2.30;;;17.20;99.90;;;;;;4946729;28;20122;-95
2021/06/28 11:42:22;;;;;;;2.90;2.20;;;17.10;99.90;;;;;;4950860;28;20076;-94
2021/06/28 11:45:15;;;;;;;7.80;2.83;;;17.10;99.90;;;;;;4966495;28;20019;-96
2021/06/28 11:47:44;;;;;;;3.15;2.53;;;17.10;99.90;;;;;;4965001;28;20678;-96
2021/06/28 11:50:32;;;;;;;4.00;2.60;;;17.10;99.90;;;;;;4955719;28;20031;-96
2021/06/28 11:53:11;;;;;;;3.47;2.38;;;17.20;99.90;;;;;;4963470;28;20071;-95
2021/06/28 11:55:49;;;;;;;3.88;2.38;;;17.20;99.90;;;;;;4951890;28;20022;-95
2021/06/28 11:58:16;;;;;;;4.18;2.25;;;17.30;99.90;;;;;;4953814;28;20503;-94
2021/06/28 12:00:42;;;;;;;4.38;2.40;;;17.30;99.90;;;;;;4949966;28;20037;-95
2021/06/28 12:03:25;;;;;;;2.55;2.35;;;17.20;99.90;;;;;;4953864;28;20029;-95
2021/06/28 12:05:53;;;;;;;2.65;2.40;;;17.20;99.90;;;;;;4967640;28;20547;-95
2021/06/28 12:08:27;;;;;;;3.85;2.55;;;17.20;99.90;;;;;;4966162;28;20031;-94
2021/06/28 12:11:03;;;;;;;4.40;3.10;;;17.30;99.90;;;;;;4951706;28;20039;-95
2021/06/28 12:13:40;;;;;;;3.53;2.80;;;17.40;99.90;;;;;;4950885;28;20054;-94
2021/06/28 12:16:17;;;;;;;4.07;2.97;;;17.40;99.90;;;;;;4952302;28;20050;-94
2021/06/28 12:18:43;;;;;;;4.25;3.05;;;17.40;99.80;;;;;;4953569;28;20039;-96
2021/06/28 12:21:09;;;;;;;5.30;2.85;;;17.40;99.80;;;;;;4968135;28;20035;-95
2021/06/28 12:23:34;;;;;;;5.85;2.70;;;17.40;99.70;;;;;;4969786;28;20034;-96
2021/06/28 12:26:12;;;;;;;4.30;2.95;;;17.40;99.70;;;;;;4959189;28;20079;-95
2021/06/28 12:28:38;;;;;;;4.63;3.35;;;17.50;99.70;;;;;;4965918;28;20039;-94
2021/06/28 12:31:15;;;;;;;5.50;2.97;;;17.50;99.50;;;;;;4961406;28;20043;-95
2021/06/28 12:33:42;;;;;;;3.60;2.95;;;17.60;99.60;;;;;;4966404;28;20031;-95
2021/06/28 12:36:14;;;;;;;5.03;3.08;;;17.60;99.50;;;;;;4956226;28;20022;-95
2021/06/28 12:38:40;;;;;;;4.20;2.92;;;17.70;99.40;;;;;;4973586;28;20026;-96
2021/06/28 12:41:06;;;;;;;3.85;2.60;;;17.80;99.30;;;;;;4968693;28;20066;-96
2021/06/28 12:43:33;;;;;;;4.25;2.88;;;17.90;99.10;;;;;;4968336;28;20066;-96
2021/06/28 12:46:00;;;;;;;5.75;3.13;;;17.90;98.90;;;;;;4964422;28;20055;-94
2021/06/28 12:48:34;;;;;;;4.45;3.55;;;18.00;98.80;;;;;;4944302;28;20023;-95
2021/06/28 12:51:05;;;;;;;4.10;3.42;;;18.00;99.00;;;;;;4976238;28;20038;-96
2021/06/28 12:53:36;;;;;;;6.07;2.67;;;18.00;98.70;;;;;;4964320;28;20108;-96
2021/06/28 13:01:43;;;;;;;3.85;3.00;;;17.90;98.70;;;;;;4984034;28;20790;-94
2021/06/28 13:04:19;;;;;;;4.70;3.20;;;17.90;98.60;;;;;;4985511;28;20027;-92
2021/06/28 13:06:46;;;;;;;4.20;3.00;;;17.90;98.70;;;;;;4982921;28;20050;-94
2021/06/28 13:09:17;;;;;;;4.35;3.00;;;18.00;98.40;;;;;;4965766;28;20073;-94
2021/06/28 13:11:50;;;;;;;6.15;3.10;;;18.00;98.30;;;;;;4967487;28;20092;-94
2021/06/28 13:14:37;;;;;;;4.43;3.10;;;17.90;98.20;;;;;;4966878;28;20089;-94
2021/06/28 13:17:27;;;;;;;3.05;2.75;;;17.90;98.20;;;;;;4965870;28;20504;-95
2021/06/28 13:19:54;;;;;;;5.60;2.80;;;17.80;98.30;;;;;;4983476;28;20026;-95
2021/06/28 13:22:20;;;;;;;5.68;2.80;;;17.80;98.40;;;;;;4965897;28;20041;-95
2021/06/28 13:24:53;;;;;;;4.45;3.08;;;17.80;98.40;;;;;;4963472;28;20403;-94
2021/06/28 13:27:32;;;;;;;4.82;3.30;;;17.80;98.40;;;;;;4969589;28;20026;-96
2021/06/28 13:29:59;;;;;;;3.63;3.27;;;17.60;98.20;;;;;;4985492;28;20133;-95
2021/06/28 13:32:27;;;;;;;4.13;3.22;;;17.60;98.40;;;;;;4989451;28;20041;-96
2021/06/28 13:35:02;;;;;;;5.80;3.50;;;17.50;98.60;;;;;;5085128;23;20007;31
2021/06/28 13:37:33;;;;;;;5.72;3.28;;;17.50;98.60;;;;;;4929313;29;20044;-94
2021/06/28 13:40:24;;;;;;;9.55;3.38;;;17.50;98.60;;;;;;4915835;29;20040;-93
2021/06/28 13:42:56;;;;;;;6.13;3.25;;;17.40;98.70;;;;;;4920633;29;20025;-96
2021/06/28 14:10:34;;;;;;;4.70;2.78;;;17.30;99.20;;;;;;1407487;23;20308;-95
2021/06/28 14:13:04;;;;;;;3.63;2.60;;;17.30;99.20;;;;;;4987626;28;20046;-96
2021/06/28 14:23:35;;;;;;;5.20;2.80;;;17.30;99.20;;;;;;5016331;28;20038;-96
2021/06/28 14:26:01;;;;;;;4.03;3.00;;;17.30;99.30;;;;;;5021113;28;20026;-95
2021/06/28 14:28:29;;;;;;;6.45;3.42;;;17.20;99.40;;;;;;4972964;28;20101;-95
2021/06/28 14:30:54;;;;;;;3.42;2.85;;;17.10;99.50;;;;;;4958690;28;20046;-96
2021/06/28 14:33:23;;;;;;;4.85;3.25;;;17.10;99.50;;;;;;4985477;28;20030;-96
2021/06/28 14:35:52;;;;;;;4.85;3.17;;;17.00;99.50;;;;;;5021216;28;20052;-95
2021/06/28 14:38:22;;;;;;;5.25;3.33;;;17.00;99.60;;;;;;5064313;23;20047;-96
2021/06/28 14:40:48;;;;;;;4.82;3.33;;;17.00;99.80;;;;;;4996794;28;20093;-95
2021/06/28 14:43:15;;;;;;;8.27;3.38;;;16.90;99.80;;;;;;4986935;28;20038;-95
2021/06/28 14:45:47;;;;;;;4.05;2.90;;;16.90;99.90;;;;;;4993787;28;20015;-96
2021/06/28 14:48:19;;;;;;;4.22;2.80;;;16.90;99.90;;;;;;5003643;28;20018;-96
2021/06/28 14:53:23;;;;;;;7.85;3.30;;;16.90;99.90;;;;;;5009636;23;20047;-95
2021/06/28 14:55:51;;;;;;;6.05;3.60;;;16.90;99.90;;;;;;5396589;23;20034;-95
2021/06/28 14:58:27;;;;;;;4.18;3.10;;;16.90;99.90;;;;;;5007676;28;20025;-95
2021/06/28 15:00:54;;;;;;;10.02;3.70;;;17.00;99.90;;;;;;4999614;28;20006;-94
2021/06/28 15:03:23;;;;;;;5.38;3.55;;;17.00;99.90;;;;;;5008790;28;20026;-95
2021/06/28 15:05:50;;;;;;;4.35;3.53;;;17.00;99.90;;;;;;4981094;28;20022;-95
2021/06/28 15:08:17;;;;;;;5.47;2.92;;;17.00;99.90;;;;;;5003227;28;20171;-94
2021/06/28 15:10:48;;;;;;;5.45;4.00;;;16.90;99.90;;;;;;4997455;28;20094;-96
2021/06/28 15:13:13;;;;;;;6.63;3.67;;;16.90;99.90;;;;;;5001547;28;20026;-96
2021/06/28 15:15:40;;;;;;;8.40;4.10;;;16.90;99.90;;;;;;5000921;28;20058;-95
2021/06/28 15:18:07;;;;;;;7.53;4.63;;;16.90;99.90;;;;;;5003161;28;20034;-96
2021/06/28 15:20:44;;;;;;;5.90;4.05;;;16.90;99.90;;;;;;5006624;28;20066;-96
2021/06/28 15:23:13;;;;;;;6.85;3.90;;;16.80;99.90;;;;;;5433123;23;20051;-96
2021/06/28 15:25:43;;;;;;;8.38;3.75;;;16.80;99.90;;;;;;4978889;28;20046;-96
2021/06/28 15:28:11;;;;;;;5.22;3.50;;;16.90;99.90;;;;;;5074232;23;20055;-93
2021/06/28 15:30:38;;;;;;;6.57;3.75;;;16.90;99.90;;;;;;4983310;28;20015;-96
2021/06/28 15:33:05;;;;;;;7.80;3.88;;;16.90;99.90;;;;;;4960377;28;20042;-94
2021/06/28 15:35:33;;;;;;;5.88;3.25;;;16.90;99.90;;;;;;4960830;29;20055;-95
2021/06/28 16:04:01;;;;;;;4.22;3.13;;;16.40;99.90;;;;;;5553050;23;20070;-96
2021/06/28 16:28:07;;;;;;;5.00;3.30;;;15.60;99.90;;;;;;6006696;23;20967;31
2021/06/28 16:30:34;;;;;;;4.88;3.60;;;15.50;99.90;;;;;;4947108;29;20142;-93
2021/06/28 16:33:00;;;;;;;7.25;3.45;;;15.40;99.90;;;;;;4948482;29;20061;-95
2021/06/28 16:35:26;;;;;;;3.65;2.60;;;15.40;99.90;;;;;;4971059;29;20039;-95
2021/06/28 16:37:55;;;;;;;3.25;2.55;;;15.30;99.90;;;;;;4958497;29;20019;-96
2021/06/28 16:40:25;;;;;;;4.40;2.95;;;15.20;99.90;;;;;;4958474;28;20008;-96
2021/06/28 16:43:04;;;;;;;6.57;3.45;;;15.20;99.90;;;;;;4977715;28;20103;-96
2021/06/28 16:45:38;;;;;;;2.83;2.50;;;15.20;99.90;;;;;;4977314;28;20045;-96
2021/06/28 16:53:20;;;;;;;3.28;2.28;;;15.00;99.90;;;;;;4174936;23;29950663;-96
2021/06/28 16:55:46;;;;;;;3.00;2.70;;;14.90;99.90;;;;;;4928608;29;20047;-94
2021/06/28 17:00:54;;;;;;;6.22;2.47;;;14.80;99.90;;;;;;5582388;23;20071;-94
2021/06/28 17:03:25;;;;;;;3.08;2.22;;;14.70;99.90;;;;;;4990756;28;20055;-94
2021/06/28 17:05:54;;;;;;;2.40;1.90;;;14.80;99.90;;;;;;4975354;28;20118;-96
2021/06/28 17:08:57;;;;;;;3.55;2.35;;;14.80;99.90;;;;;;4970582;28;20022;-95
2021/06/28 17:11:28;;;;;;;3.03;2.03;;;14.70;99.90;;;;;;4971808;28;20030;-95
2021/06/28 17:13:53;;;;;;;3.08;2.50;;;14.70;99.90;;;;;;4969399;28;20030;-94
2021/06/28 17:16:19;;;;;;;4.38;2.28;;;14.70;99.90;;;;;;4965488;28;20027;-95
2021/06/28 17:18:52;;;;;;;4.40;2.80;;;14.70;99.90;;;;;;4967511;28;20030;-95
2021/06/28 17:21:21;;;;;;;4.90;3.13;;;14.70;99.90;;;;;;4966374;28;20558;-94
2021/06/28 17:23:48;;;;;;;6.15;3.13;;;14.70;99.90;;;;;;4947697;28;20054;-94
2021/06/28 17:26:14;;;;;;;5.63;3.03;;;14.60;99.90;;;;;;4969445;28;20031;-96
2021/06/28 17:28:50;;;;;;;4.72;3.42;;;14.60;99.90;;;;;;4970744;28;20099;-96
2021/06/28 17:31:22;;;;;;;9.25;4.40;;;14.50;99.90;;;;;;4983811;28;20027;-94
2021/06/28 17:34:08;;;;;;;;;;;;;;;;;;;;;
2021/06/28 17:36:40;;;;;;;5.75;2.67;;;14.40;99.90;;;;;;4932940;28;20039;-94
2021/06/28 17:39:06;;;;;;;4.78;2.40;;;14.40;99.90;;;;;;4964319;28;20046;-94
2021/06/28 17:41:37;;;;;;;2.58;2.13;;;14.40;99.90;;;;;;4969638;28;20023;-95
2021/06/28 17:44:08;;;;;;;5.15;2.25;;;14.30;99.90;;;;;;4973235;28;20086;-94
